Hannibal, Wisconsin
Current Conditions -  °F | °C
As of 10:35 PM on Sunday 25 Jan 2015 (Local Time) from KRCX Reporting Station
Overcast Overcast  
Wind Chill: 16°   Ceiling: 9000
Heat Index: 16°   Visibility: 10mi
Dew Point: 10°   Wind: 3mph
Humidity: 77%   Direction: 160°SSE
Pressure: 30"   Gusts: NA
Location:  45.25°N, 90.79°W
Report Text: KRCX 260435Z AUTO 16003KT 10SM OVC090 M09/M12 A3000 RMK AO2 T10881121
Loading
Personal Weather Stations






























Interactive Weather Map New forecast layout! Learn more

10-Day Weather Forecast

Advertisements
Track Severe Weather on mobile